Time;durP1;ratioP1;P1;durP2;ratioP2;P2;SDS_P1;SDS_P2;PMS_P1;PMS_P2;Temp;Humidity;BMP_temperature;BMP_pressure;BME280_temperature;BME280_humidity;BME280_pressure;Samples;Min_cycle;Max_cycle;Signal;HPM_P1;HPM_P2
2022/09/25 00:01:22;;;;;;;21.67;12.18;;;;;;;10.58;100.00;101448.38;5012810;28;20113;-62
2022/09/25 00:03:47;;;;;;;19.73;10.50;;;;;;;10.57;100.00;101435.66;5012791;28;20180;-62
2022/09/25 00:06:15;;;;;;;19.88;9.63;;;;;;;10.54;100.00;101441.75;5012753;28;20187;-62
2022/09/25 00:08:41;;;;;;;18.88;10.70;;;;;;;10.55;100.00;101445.38;5012799;28;20034;-62
2022/09/25 00:11:09;;;;;;;21.83;10.55;;;;;;;10.49;100.00;101440.97;5011493;28;20153;-62
2022/09/25 00:13:36;;;;;;;20.20;9.93;;;;;;;10.54;100.00;101457.56;5012732;28;20420;-61
2022/09/25 00:16:03;;;;;;;18.67;10.32;;;;;;;10.55;100.00;101453.66;5012713;28;20063;-61
2022/09/25 00:21:14;;;;;;;20.65;10.30;;;;;;;10.48;100.00;101459.53;5012896;28;20104;-61
2022/09/25 00:23:41;;;;;;;20.08;10.50;;;;;;;10.45;100.00;101458.19;5013166;28;20022;-62
2022/09/25 00:26:07;;;;;;;18.67;10.50;;;;;;;10.47;100.00;101459.84;5012705;28;20033;-63
2022/09/25 00:28:37;;;;;;;20.70;10.85;;;;;;;10.48;100.00;101462.31;5013077;28;20022;-63
2022/09/25 00:31:04;;;;;;;18.70;10.15;;;;;;;10.44;100.00;101462.06;5011141;28;20116;-61
2022/09/25 00:33:31;;;;;;;20.95;9.93;;;;;;;10.47;100.00;101459.84;5012542;28;20087;-62
2022/09/25 00:36:03;;;;;;;17.77;9.93;;;;;;;10.38;100.00;101443.88;5012496;28;20034;-62
2022/09/25 00:38:28;;;;;;;21.35;9.90;;;;;;;10.42;100.00;101444.13;5012680;28;20061;-61
2022/09/25 00:40:54;;;;;;;18.80;9.80;;;;;;;10.42;100.00;101449.66;5012691;28;20037;-62
2022/09/25 00:43:39;;;;;;;19.20;10.07;;;;;;;10.38;100.00;101449.41;5012493;28;20029;-62
2022/09/25 00:46:17;;;;;;;18.98;9.82;;;;;;;10.28;100.00;101435.63;5012799;28;20493;-62
2022/09/25 00:49:13;;;;;;;20.88;10.48;;;;;;;10.32;100.00;101449.69;5012399;28;20029;-62
2022/09/25 00:52:02;;;;;;;18.73;10.35;;;;;;;10.25;100.00;101456.38;4997555;28;20373;-61
2022/09/25 00:54:33;;;;;;;20.17;10.30;;;;;;;10.24;100.00;101460.28;5012234;28;20068;-61
2022/09/25 00:57:04;;;;;;;20.00;10.68;;;;;;;10.23;100.00;101461.38;5012363;28;20034;-62
2022/09/25 00:59:35;;;;;;;19.48;10.00;;;;;;;10.25;100.00;101455.56;5013834;28;20026;-61
2022/09/25 01:02:01;;;;;;;19.80;10.60;;;;;;;10.23;100.00;101455.00;5016067;28;20472;-61
2022/09/25 01:04:29;;;;;;;19.05;10.80;;;;;;;10.21;100.00;101469.13;5014622;28;20129;-62
2022/09/25 01:06:55;;;;;;;19.73;10.60;;;;;;;10.20;100.00;101458.38;5015649;28;20030;-63
2022/09/25 01:09:21;;;;;;;20.58;10.88;;;;;;;10.18;100.00;101460.59;5015432;28;20030;-64
2022/09/25 01:11:47;;;;;;;19.77;10.90;;;;;;;10.10;100.00;101460.09;5015423;28;20454;-63
2022/09/25 01:14:16;;;;;;;19.75;10.80;;;;;;;10.06;100.00;101463.72;5015678;28;20029;-62
2022/09/25 01:17:06;;;;;;;20.20;10.95;;;;;;;10.03;100.00;101459.59;5015943;28;20041;-62
2022/09/25 01:20:09;;;;;;;19.30;11.50;;;;;;;10.02;100.00;101468.97;5015533;28;20073;-62
2022/09/25 01:22:40;;;;;;;21.85;11.25;;;;;;;9.93;100.00;101473.47;5015749;28;20040;-62
2022/09/25 01:25:33;;;;;;;21.80;10.75;;;;;;;9.87;100.00;101464.38;5014270;28;20075;-62
2022/09/25 01:28:10;;;;;;;19.75;10.70;;;;;;;9.78;100.00;101461.41;5015919;28;20030;-62
2022/09/25 01:30:41;;;;;;;19.23;10.60;;;;;;;9.78;100.00;101455.88;5015552;28;20030;-62
2022/09/25 01:33:13;;;;;;;21.98;10.95;;;;;;;9.83;100.00;101477.13;5015443;28;20057;-62
2022/09/25 01:35:48;;;;;;;21.02;10.95;;;;;;;9.74;100.00;101465.84;5015533;28;20484;-62
2022/09/25 01:38:19;;;;;;;19.90;10.38;;;;;;;9.76;100.00;101474.69;5014927;28;20088;-61
2022/09/25 01:40:58;;;;;;;21.30;10.65;;;;;;;9.75;100.00;101475.78;5015252;28;20030;-61
2022/09/25 01:43:32;;;;;;;21.10;10.75;;;;;;;9.70;100.00;101477.75;5015146;28;20033;-61
2022/09/25 01:46:01;;;;;;;20.85;10.80;;;;;;;9.67;100.00;101479.16;5015316;28;20091;-61
2022/09/25 01:48:30;;;;;;;19.75;10.80;;;;;;;9.55;100.00;101467.59;5014725;28;20022;-61
2022/09/25 01:51:03;;;;;;;21.50;11.20;;;;;;;9.61;100.00;101481.13;5014932;28;20030;-61
2022/09/25 01:53:38;;;;;;;20.65;10.70;;;;;;;9.58;100.00;101481.69;5014807;28;20107;-62
2022/09/25 01:56:12;;;;;;;19.35;11.23;;;;;;;9.50;100.00;101485.03;5015074;28;20022;-62
2022/09/25 01:58:44;;;;;;;20.70;11.70;;;;;;;9.50;100.00;101490.56;5015049;28;20429;-61
2022/09/25 02:01:21;;;;;;;18.30;10.88;;;;;;;9.48;100.00;101490.03;5015269;28;20022;-61
2022/09/25 02:03:55;;;;;;;21.60;11.52;;;;;;;9.36;100.00;101477.38;5014802;28;20457;-64
2022/09/25 02:06:21;;;;;;;19.98;11.10;;;;;;;9.42;100.00;101480.94;5014728;28;20022;-62
2022/09/25 02:09:08;;;;;;;20.00;11.02;;;;;;;9.41;100.00;101476.53;5014746;28;20034;-62
2022/09/25 02:11:39;;;;;;;18.27;11.32;;;;;;;9.41;100.00;101475.69;5014197;28;20030;-63
2022/09/25 02:14:15;;;;;;;21.25;11.38;;;;;;;9.31;100.00;101480.13;5014840;28;20025;-63
2022/09/25 02:16:43;;;;;;;19.83;10.93;;;;;;;9.25;100.00;101473.00;5014483;28;20040;-62
2022/09/25 02:22:21;;;;;;;20.02;10.90;;;;;;;9.17;100.00;101476.34;5014274;28;20085;-62
2022/09/25 02:24:55;;;;;;;19.23;11.10;;;;;;;9.14;100.00;101472.22;5014216;28;20404;-62
2022/09/25 02:27:22;;;;;;;20.40;11.18;;;;;;;9.11;100.00;101474.72;5014668;28;20033;-62
2022/09/25 02:29:48;;;;;;;21.30;11.23;;;;;;;9.04;100.00;101472.25;5014777;28;20037;-62
2022/09/25 02:32:17;;;;;;;20.95;11.10;;;;;;;9.02;100.00;101478.03;5014026;28;20026;-62
2022/09/25 02:34:43;;;;;;;18.23;10.93;;;;;;;8.99;100.00;101484.13;5014122;28;20022;-62
2022/09/25 02:37:13;;;;;;;20.73;11.30;;;;;;;8.96;100.00;101481.91;5013763;28;20076;-62
2022/09/25 02:39:40;;;;;;;21.40;11.40;;;;;;;8.90;100.00;101483.03;5013721;28;20046;-61
2022/09/25 02:42:23;;;;;;;20.63;11.00;;;;;;;8.94;100.00;101478.59;5013644;28;20036;-62
2022/09/25 02:45:05;;;;;;;22.98;11.60;;;;;;;8.84;100.00;101484.97;5013745;28;20464;-61
2022/09/25 02:47:43;;;;;;;18.30;11.13;;;;;;;8.82;100.00;101478.91;5013541;28;20069;-62
2022/09/25 02:50:23;;;;;;;22.10;11.60;;;;;;;8.77;100.00;101478.94;5014107;28;20381;-62
2022/09/25 02:53:12;;;;;;;21.08;11.77;;;;;;;8.73;100.00;101475.06;5013958;28;20397;-62
2022/09/25 02:55:49;;;;;;;19.35;11.60;;;;;;;8.71;100.00;101471.75;5013971;28;20025;-63
2022/09/25 02:58:29;;;;;;;22.15;11.68;;;;;;;8.62;100.00;101451.34;5014096;28;20150;-62
2022/09/25 03:00:56;;;;;;;21.23;11.15;;;;;;;8.58;100.00;101462.94;5012630;28;20109;-62
2022/09/25 03:03:24;;;;;;;21.63;11.02;;;;;;;8.52;100.00;101460.47;5013762;28;20397;-62
2022/09/25 03:05:54;;;;;;;22.02;10.95;;;;;;;8.53;100.00;101464.88;5013336;28;20036;-62
2022/09/25 03:08:40;;;;;;;21.67;10.88;;;;;;;8.54;100.00;101467.34;5013638;28;20030;-62
2022/09/25 03:11:11;;;;;;;21.17;11.35;;;;;;;8.50;100.00;101463.47;5013682;28;20034;-61
2022/09/25 03:13:38;;;;;;;20.05;11.20;;;;;;;8.48;100.00;101457.44;5013596;28;20026;-62
2022/09/25 03:16:10;;;;;;;22.33;11.55;;;;;;;8.47;100.00;101453.03;5013652;28;20076;-61
2022/09/25 03:18:36;;;;;;;21.27;11.23;;;;;;;8.40;100.00;101464.31;5013329;28;20538;-62
2022/09/25 03:21:03;;;;;;;21.52;11.68;;;;;;;8.39;100.00;101457.13;5013522;28;20064;-62
2022/09/25 03:23:28;;;;;;;24.95;12.52;;;;;;;8.29;100.00;101457.13;5013290;28;20030;-61
2022/09/25 03:25:54;;;;;;;21.75;12.05;;;;;;;8.30;100.00;101471.75;5013311;28;20092;-61
2022/09/25 03:28:20;;;;;;;19.67;11.73;;;;;;;8.27;100.00;101467.59;5013314;28;20034;-61
2022/09/25 03:31:06;;;;;;;22.48;11.60;;;;;;;8.27;100.00;101471.19;5013015;28;20100;-61
2022/09/25 03:33:40;;;;;;;20.42;11.82;;;;;;;8.18;100.00;101459.06;5012959;28;20026;-61
2022/09/25 03:36:08;;;;;;;21.67;12.35;;;;;;;8.24;100.00;101468.16;5013323;28;20084;-61
2022/09/25 03:38:34;;;;;;;23.05;12.45;;;;;;;8.21;100.00;101472.31;5013202;28;20030;-61
2022/09/25 03:41:00;;;;;;;22.05;12.35;;;;;;;8.18;100.00;101461.81;5012939;28;20025;-62
2022/09/25 03:43:26;;;;;;;23.17;12.30;;;;;;;8.16;100.00;101471.47;5012910;28;20052;-61
2022/09/25 03:45:51;;;;;;;21.90;12.38;;;;;;;8.16;100.00;101463.22;5012071;28;20061;-62
2022/09/25 03:48:16;;;;;;;25.88;15.65;;;;;;;8.17;100.00;101468.44;5012937;28;20099;-61
2022/09/25 03:50:42;;;;;;;23.08;12.35;;;;;;;8.12;100.00;101457.41;5012637;28;20473;-62
2022/09/25 03:53:07;;;;;;;21.63;12.32;;;;;;;8.06;100.00;101451.06;5012899;28;20057;-61
2022/09/25 03:55:33;;;;;;;25.58;11.95;;;;;;;8.12;100.00;101468.44;5012603;28;20018;-61
2022/09/25 03:57:58;;;;;;;23.00;12.90;;;;;;;8.11;100.00;101464.03;5012460;28;20021;-62
2022/09/25 04:00:24;;;;;;;21.30;12.65;;;;;;;8.07;100.00;101466.50;5012560;28;20487;-61
2022/09/25 04:02:49;;;;;;;22.45;12.48;;;;;;;8.05;100.00;101460.44;5012784;28;20465;-61
2022/09/25 04:05:18;;;;;;;23.38;13.10;;;;;;;8.08;100.00;101467.31;5012705;28;20068;-61
2022/09/25 04:07:44;;;;;;;22.15;12.43;;;;;;;8.06;100.00;101467.59;5013252;28;20052;-61
2022/09/25 04:10:10;;;;;;;22.63;13.00;;;;;;;8.06;100.00;101464.00;5013024;28;20026;-61
2022/09/25 04:12:35;;;;;;;22.02;12.88;;;;;;;8.06;100.00;101470.38;5013098;28;20044;-61
2022/09/25 04:15:01;;;;;;;22.38;12.80;;;;;;;8.07;100.00;101469.25;5012457;28;20030;-61
2022/09/25 04:17:27;;;;;;;22.40;13.48;;;;;;;8.02;100.00;101468.44;5013222;28;20041;-62
2022/09/25 04:19:53;;;;;;;22.48;12.88;;;;;;;8.01;100.00;101464.81;5013053;28;20050;-62
2022/09/25 04:22:18;;;;;;;23.65;13.40;;;;;;;7.96;100.00;101462.06;5013009;28;20026;-61
2022/09/25 04:24:49;;;;;;;21.38;12.73;;;;;;;7.93;100.00;101460.69;5012628;28;20033;-62
2022/09/25 04:27:21;;;;;;;23.23;13.27;;;;;;;7.94;100.00;101458.75;5012902;28;20354;-61
2022/09/25 04:29:47;;;;;;;24.40;13.02;;;;;;;7.88;100.00;101446.09;5007741;28;20030;-64
2022/09/25 04:34:58;;;;;;;24.13;13.43;;;;;;;7.80;100.00;101459.28;5016689;28;20037;-61
2022/09/25 04:37:27;;;;;;;22.65;13.27;;;;;;;7.80;100.00;101463.97;5016981;28;20030;-61
2022/09/25 04:39:56;;;;;;;24.88;12.90;;;;;;;7.78;100.00;101463.41;5016261;28;20022;-62
2022/09/25 04:42:23;;;;;;;22.23;13.93;;;;;;;7.80;100.00;101459.28;5016579;28;20026;-61
2022/09/25 04:44:53;;;;;;;21.65;12.73;;;;;;;7.81;100.00;101460.13;5016472;28;20026;-61
2022/09/25 04:47:19;;;;;;;23.90;13.13;;;;;;;7.78;100.00;101457.91;5016290;28;20547;-62
2022/09/25 04:49:45;;;;;;;21.38;12.30;;;;;;;7.79;100.00;101459.56;5016445;28;20030;-62
2022/09/25 04:52:14;;;;;;;21.40;12.43;;;;;;;7.76;100.00;101465.59;5016199;28;20113;-61
2022/09/25 04:54:41;;;;;;;21.85;12.65;;;;;;;7.71;100.00;101468.34;5016133;28;20034;-61
2022/09/25 04:57:07;;;;;;;21.77;12.27;;;;;;;7.71;100.00;101468.34;5016228;28;20022;-61
2022/09/25 04:59:32;;;;;;;23.85;13.23;;;;;;;7.71;100.00;101466.41;5016078;28;20017;-61
2022/09/25 05:01:57;;;;;;;21.77;12.57;;;;;;;7.71;100.00;101460.09;5014436;28;20029;-62
2022/09/25 05:04:23;;;;;;;23.55;12.77;;;;;;;7.72;100.00;101456.25;5015973;28;20049;-61
2022/09/25 05:06:50;;;;;;;21.70;12.45;;;;;;;7.69;100.00;101457.63;5015392;28;20057;-63
2022/09/25 05:09:15;;;;;;;20.73;12.75;;;;;;;7.67;100.00;101457.06;5014966;28;20129;-61
2022/09/25 05:11:41;;;;;;;23.17;13.40;;;;;;;7.68;100.00;101452.38;5015171;28;20373;-61
2022/09/25 05:14:06;;;;;;;20.50;13.05;;;;;;;7.70;100.00;101452.94;5015138;28;20034;-61
2022/09/25 05:16:31;;;;;;;24.58;14.13;;;;;;;7.70;100.00;101451.00;5015092;28;20449;-61
2022/09/25 05:18:57;;;;;;;21.67;12.85;;;;;;;7.70;100.00;101448.22;5015211;28;20473;-60
2022/09/25 05:21:23;;;;;;;21.17;13.00;;;;;;;7.69;100.00;101443.00;5015755;28;20072;-62
2022/09/25 05:23:49;;;;;;;20.27;12.80;;;;;;;7.70;100.00;101439.97;5015364;28;20033;-62
2022/09/25 05:26:14;;;;;;;23.27;13.80;;;;;;;7.60;100.00;101443.53;5015404;28;20038;-61
2022/09/25 05:28:40;;;;;;;22.85;13.43;;;;;;;7.61;100.00;101444.34;5013817;28;20053;-62
2022/09/25 05:31:05;;;;;;;22.10;13.48;;;;;;;7.64;100.00;101438.31;5014938;28;20047;-62
2022/09/25 05:33:32;;;;;;;22.85;13.65;;;;;;;7.65;100.00;101445.47;5015246;28;20045;-62
2022/09/25 05:36:01;;;;;;;23.77;14.18;;;;;;;7.71;100.00;101441.63;5015388;28;20421;-61
2022/09/25 05:38:27;;;;;;;24.50;13.10;;;;;;;7.74;100.00;101449.34;5015485;28;20390;-61
2022/09/25 05:40:54;;;;;;;21.52;13.27;;;;;;;7.74;100.00;101445.78;5015126;28;20531;-60
2022/09/25 05:43:20;;;;;;;23.27;13.90;;;;;;;7.75;100.00;101458.44;5015508;28;20032;-61
2022/09/25 05:45:53;;;;;;;23.77;14.48;;;;;;;7.68;100.00;101453.22;5013909;28;20447;-61
2022/09/25 05:48:18;;;;;;;27.08;16.08;;;;;;;7.74;100.00;101454.06;5015277;28;20103;-61
2022/09/25 05:50:43;;;;;;;22.95;14.27;;;;;;;7.77;100.00;101453.50;5015230;28;20463;-61
2022/09/25 05:53:09;;;;;;;24.02;14.32;;;;;;;7.79;100.00;101452.09;5014518;28;20034;-60
2022/09/25 05:55:34;;;;;;;25.83;14.30;;;;;;;7.81;100.00;101451.84;5015095;28;20423;-61
2022/09/25 05:58:03;;;;;;;22.23;13.13;;;;;;;7.83;100.00;101457.09;5015287;28;20068;-61
2022/09/25 06:00:31;;;;;;;26.13;14.75;;;;;;;7.81;100.00;101463.69;5015106;28;20496;-61
2022/09/25 06:02:57;;;;;;;24.35;13.82;;;;;;;7.83;100.00;101457.09;5014972;28;20037;-61
2022/09/25 06:05:22;;;;;;;24.63;14.60;;;;;;;7.81;100.00;101460.13;5014436;28;20169;-62
2022/09/25 06:07:52;;;;;;;23.45;14.73;;;;;;;7.79;100.00;101460.38;5014782;28;20159;-62
2022/09/25 06:10:18;;;;;;;25.42;14.25;;;;;;;7.77;100.00;101461.75;5014890;28;20129;-62
2022/09/25 06:12:43;;;;;;;23.83;14.48;;;;;;;7.83;100.00;101465.34;5013286;28;20045;-62
2022/09/25 06:15:09;;;;;;;23.65;14.20;;;;;;;7.83;100.00;101463.44;5014392;28;20585;-62
2022/09/25 06:17:34;;;;;;;24.67;13.55;;;;;;;7.86;100.00;101460.13;5014069;28;20037;-62
2022/09/25 06:19:59;;;;;;;24.60;14.00;;;;;;;7.75;100.00;101441.91;5013942;28;20477;-61
2022/09/25 06:22:25;;;;;;;25.27;14.32;;;;;;;7.91;100.00;101457.38;5014290;28;20047;-60
2022/09/25 06:24:50;;;;;;;24.50;13.90;;;;;;;7.95;100.00;101455.72;5014013;28;20100;-63
2022/09/25 06:27:15;;;;;;;26.52;14.55;;;;;;;8.01;100.00;101456.56;5014550;28;20080;-60
2022/09/25 06:29:41;;;;;;;25.98;14.15;;;;;;;8.04;100.00;101458.78;5014402;28;20343;-60
2022/09/25 06:32:06;;;;;;;25.23;14.60;;;;;;;8.10;100.00;101467.88;5014201;28;20450;-60
2022/09/25 06:34:31;;;;;;;22.90;13.00;;;;;;;8.17;100.00;101467.63;5014203;28;20026;-60
2022/09/25 06:36:59;;;;;;;26.05;13.88;;;;;;;8.21;100.00;101464.03;5014485;28;20354;-60
2022/09/25 06:39:24;;;;;;;23.17;13.68;;;;;;;8.29;100.00;101465.41;5014188;28;20030;-60
2022/09/25 06:41:52;;;;;;;22.95;13.20;;;;;;;8.36;100.00;101465.94;5013801;28;20022;-60
2022/09/25 06:44:17;;;;;;;24.05;14.50;;;;;;;8.44;100.00;101464.56;5002863;28;20030;-60
2022/09/25 06:46:43;;;;;;;23.95;13.77;;;;;;;8.51;100.00;101464.31;4994377;28;20037;-60
2022/09/25 06:49:12;;;;;;;24.77;12.68;;;;;;;8.49;100.00;101453.59;4994477;28;20223;-60
2022/09/25 06:51:38;;;;;;;23.88;12.85;;;;;;;8.67;100.00;101473.41;5009332;28;20030;-60
2022/09/25 06:54:03;;;;;;;23.35;12.93;;;;;;;8.71;100.00;101471.75;4994399;28;20061;-60
2022/09/25 06:56:29;;;;;;;23.85;12.65;;;;;;;8.78;100.00;101477.81;4993280;28;20058;-61
2022/09/25 06:58:54;;;;;;;24.65;13.23;;;;;;;8.82;100.00;101472.56;4994018;28;20022;-60
2022/09/25 07:01:19;;;;;;;23.27;12.75;;;;;;;8.84;100.00;101484.13;4993606;28;20022;-62
2022/09/25 07:03:45;;;;;;;22.35;12.93;;;;;;;8.92;100.00;101482.75;4994040;28;20451;-60
2022/09/25 07:06:14;;;;;;;23.40;12.68;;;;;;;8.94;100.00;101472.25;4993876;28;20093;-61
2022/09/25 07:08:40;;;;;;;20.92;12.60;;;;;;;9.05;100.00;101480.22;5000887;28;20033;-61
2022/09/25 07:11:06;;;;;;;23.73;13.70;;;;;;;9.13;100.00;101483.50;5011872;28;20710;-61
2022/09/25 07:13:34;;;;;;;23.67;12.93;;;;;;;9.19;100.00;101479.66;5026906;28;20116;-63
2022/09/25 07:16:02;;;;;;;22.25;12.60;;;;;;;9.24;100.00;101478.81;5012204;28;20033;-61
2022/09/25 07:18:28;;;;;;;22.65;12.65;;;;;;;9.33;100.00;101488.97;5011827;28;20053;-63
2022/09/25 07:21:06;;;;;;;21.58;12.13;;;;;;;9.42;100.00;101488.38;5011981;28;20453;-61
2022/09/25 07:23:32;;;;;;;22.85;12.77;;;;;;;9.49;100.00;101486.97;5012179;28;20041;-62
2022/09/25 07:26:21;;;;;;;21.75;12.73;;;;;;;9.61;100.00;101494.94;5012483;28;20117;-62
2022/09/25 07:28:58;;;;;;;19.98;11.00;;;;;;;9.67;100.00;101490.22;5012297;28;20029;-63
2022/09/25 07:31:26;;;;;;;20.15;10.68;;;;;;;9.75;100.00;101486.84;5012129;28;20105;-60
2022/09/25 07:33:52;;;;;;;19.73;11.23;;;;;;;9.90;100.00;101483.16;5012042;28;20072;-62
2022/09/25 07:36:17;;;;;;;20.17;10.90;;;;;;;10.00;100.00;101485.06;5011799;28;20030;-61
2022/09/25 07:38:44;;;;;;;21.10;11.55;;;;;;;10.11;100.00;101489.38;5011682;28;20026;-61
2022/09/25 07:41:12;;;;;;;21.08;12.10;;;;;;;10.19;100.00;101485.19;5012024;28;20052;-62
2022/09/25 07:43:38;;;;;;;20.30;11.07;;;;;;;10.26;100.00;101490.41;5012449;28;20030;-61
2022/09/25 07:46:04;;;;;;;21.23;11.10;;;;;;;10.34;100.00;101491.72;5012657;28;20480;-62
2022/09/25 07:48:30;;;;;;;20.88;11.43;;;;;;;10.39;100.00;101481.44;5013102;28;20041;-61
2022/09/25 07:50:59;;;;;;;18.15;10.40;;;;;;;10.45;100.00;101473.94;5012735;28;20021;-63
2022/09/25 07:53:24;;;;;;;19.70;10.68;;;;;;;10.57;100.00;101485.47;5011827;28;20048;-62
2022/09/25 07:55:50;;;;;;;18.92;10.70;;;;;;;10.61;100.00;101486.53;5012792;28;20429;-61
2022/09/25 07:58:18;;;;;;;19.50;10.20;;;;;;;10.70;100.00;101481.19;5013171;28;20083;-62
2022/09/25 08:00:43;;;;;;;19.08;10.32;;;;;;;10.78;100.00;101485.28;5012808;28;20029;-62
2022/09/25 08:03:10;;;;;;;20.83;10.60;;;;;;;10.84;100.00;101488.81;5012723;28;20033;-62
2022/09/25 08:05:35;;;;;;;19.27;10.60;;;;;;;10.95;100.00;101484.84;5012446;28;20034;-61
2022/09/25 08:08:01;;;;;;;18.73;10.27;;;;;;;11.01;100.00;101480.88;5012219;28;20218;-63
2022/09/25 08:10:27;;;;;;;19.55;10.85;;;;;;;11.11;100.00;101481.88;5020140;28;20102;-61
2022/09/25 08:12:53;;;;;;;19.48;11.00;;;;;;;11.15;100.00;101486.53;5010615;28;20034;-62
2022/09/25 08:15:18;;;;;;;21.83;10.50;;;;;;;11.27;100.00;101474.22;5012361;28;20078;-62
2022/09/25 08:17:43;;;;;;;19.00;10.07;;;;;;;11.27;100.00;101480.59;5012245;28;20493;-62
2022/09/25 08:20:09;;;;;;;19.38;10.48;;;;;;;11.39;100.00;101478.22;5011963;28;20482;-61
2022/09/25 08:22:34;;;;;;;18.42;10.40;;;;;;;11.47;100.00;101473.97;5011867;28;20025;-61
2022/09/25 08:25:01;;;;;;;18.88;10.10;;;;;;;11.53;100.00;101477.47;5012488;28;20037;-61
2022/09/25 08:27:27;;;;;;;19.23;9.77;;;;;;;11.55;100.00;101476.09;5010719;28;20453;-61
2022/09/25 08:29:53;;;;;;;20.95;9.73;;;;;;;11.64;100.00;101473.47;5010772;28;20064;-61
2022/09/25 08:32:18;;;;;;;20.02;9.57;;;;;;;11.72;100.00;101477.53;5011072;28;20477;-61
2022/09/25 08:34:43;;;;;;;17.60;9.23;;;;;;;11.77;100.00;101471.09;5010848;28;20080;-62
2022/09/25 08:37:09;;;;;;;18.33;8.98;;;;;;;11.84;100.00;101477.06;5025624;28;20504;-61
2022/09/25 08:39:35;;;;;;;18.08;9.43;;;;;;;11.90;98.66;101477.81;5011337;28;20509;-62
2022/09/25 08:42:01;;;;;;;17.73;8.50;;;;;;;11.96;98.06;101471.91;5010989;28;20395;-61
2022/09/25 08:44:40;;;;;;;19.08;9.27;;;;;;;12.07;97.66;101477.34;5010931;28;20026;-64
2022/09/25 08:50:17;;;;;;;18.45;9.32;;;;;;;12.26;97.25;101489.25;5011258;28;20068;-62
2022/09/25 08:52:51;;;;;;;17.60;9.40;;;;;;;12.35;97.88;101472.72;5010827;28;20435;-62
2022/09/25 08:56:13;;;;;;;18.08;8.75;;;;;;;12.47;95.76;101483.31;5010812;28;20473;-61
2022/09/25 08:58:23;;;;;;;17.00;9.00;;;;;;;12.47;93.04;101481.41;5010776;28;20389;-63
2022/09/25 09:00:53;;;;;;;17.70;8.60;;;;;;;12.53;92.68;101481.28;5011325;28;20032;-62
2022/09/25 09:03:24;;;;;;;18.77;8.93;;;;;;;12.59;91.99;101482.88;5011059;28;20084;-62
2022/09/25 09:05:55;;;;;;;16.38;8.30;;;;;;;12.57;91.16;101480.38;5011330;28;20081;-62
2022/09/25 09:08:24;;;;;;;16.20;8.45;;;;;;;12.71;92.68;101480.41;5011101;28;20033;-62
2022/09/25 09:10:54;;;;;;;18.20;8.25;;;;;;;12.80;90.48;101475.00;5010945;28;20025;-62
2022/09/25 09:13:30;;;;;;;17.83;8.25;;;;;;;12.87;89.28;101469.03;5009813;28;20033;-63
2022/09/25 09:16:08;;;;;;;17.98;8.20;;;;;;;12.98;88.86;101467.72;5010996;28;20045;-62
2022/09/25 09:18:39;;;;;;;15.85;7.30;;;;;;;13.01;87.45;101471.84;5010807;28;20081;-62
2022/09/25 09:21:21;;;;;;;16.33;7.55;;;;;;;13.09;86.74;101469.16;5012877;28;20128;-62
2022/09/25 09:24:18;;;;;;;16.23;7.00;;;;;;;13.15;85.00;101464.31;5014395;28;20033;-61
2022/09/25 09:27:03;;;;;;;14.75;7.20;;;;;;;13.29;82.96;101464.31;5006978;28;20046;-61
2022/09/25 09:29:56;;;;;;;18.92;7.40;;;;;;;13.46;84.09;101471.25;5013664;28;20400;-62
2022/09/25 09:32:45;;;;;;;17.83;7.55;;;;;;;13.50;82.50;101470.31;5014170;28;20038;-62
2022/09/25 09:35:36;;;;;;;18.05;7.40;;;;;;;13.49;81.36;101465.88;5013825;28;20030;-62
2022/09/25 09:38:14;;;;;;;14.55;6.53;;;;;;;13.52;80.65;101462.47;5012646;28;20107;-62
2022/09/25 09:40:54;;;;;;;15.63;7.25;;;;;;;13.48;79.54;101461.47;5013940;28;20378;-63
2022/09/25 09:43:30;;;;;;;14.40;7.20;;;;;;;13.49;80.39;101454.78;5013903;28;20429;-62
2022/09/25 09:46:26;;;;;;;12.77;6.78;;;;;;;13.76;81.28;101466.13;5013198;28;20026;-62
2022/09/25 09:49:03;;;;;;;13.05;7.10;;;;;;;13.82;77.98;101465.69;5013716;28;20026;-59
2022/09/25 09:51:40;;;;;;;16.63;6.90;;;;;;;13.85;78.32;101461.47;5028619;28;20422;-60
2022/09/25 09:54:34;;;;;;;13.90;6.63;;;;;;;13.87;78.40;101461.97;4996340;28;20084;-64
2022/09/25 09:57:03;;;;;;;15.43;6.70;;;;;;;13.95;76.01;101452.88;5014218;28;20068;-62
2022/09/25 09:59:48;;;;;;;14.10;6.82;;;;;;;14.06;73.16;101463.78;5013591;28;20026;-62
2022/09/25 10:02:32;;;;;;;16.90;7.18;;;;;;;14.10;76.28;101448.91;5013561;28;20081;-62
2022/09/25 10:05:02;;;;;;;12.57;5.90;;;;;;;14.14;71.20;101451.88;5013665;28;20484;-63
2022/09/25 10:07:30;;;;;;;14.07;6.13;;;;;;;13.90;70.59;101433.56;5013222;28;20032;-63
2022/09/25 10:09:57;;;;;;;14.55;6.63;;;;;;;13.83;73.02;101452.63;5013187;28;20037;-62
2022/09/25 10:12:29;;;;;;;16.23;7.20;;;;;;;13.81;73.34;101452.13;5013293;28;20053;-62
2022/09/25 10:14:56;;;;;;;11.82;6.60;;;;;;;13.97;72.00;101450.63;5013338;28;20072;-62
2022/09/25 10:17:22;;;;;;;14.07;6.78;;;;;;;14.13;72.43;101450.25;5013250;28;20084;-62
2022/09/25 10:19:52;;;;;;;13.18;6.50;;;;;;;14.23;70.36;101441.63;5012950;28;20497;-62
2022/09/25 10:22:22;;;;;;;13.10;6.90;;;;;;;14.27;71.82;101427.91;5013230;28;20076;-61
2022/09/25 10:24:54;;;;;;;14.43;7.20;;;;;;;14.50;68.79;101446.25;5013231;28;20033;-63
2022/09/25 10:27:28;;;;;;;13.63;6.80;;;;;;;14.58;69.00;101430.75;5012448;28;20026;-63
2022/09/25 10:30:06;;;;;;;13.60;6.93;;;;;;;14.76;66.92;101437.25;5012719;28;20109;-62
2022/09/25 10:32:36;;;;;;;12.93;6.57;;;;;;;14.89;67.62;101438.28;5012658;28;20038;-62
2022/09/25 10:35:02;;;;;;;11.25;6.88;;;;;;;14.82;67.33;101437.94;5012837;28;20030;-63
2022/09/25 10:37:33;;;;;;;12.02;6.80;;;;;;;14.85;67.62;101428.09;5013165;28;20117;-64
2022/09/25 10:40:06;;;;;;;11.32;6.60;;;;;;;14.94;65.81;101427.00;5013022;28;20152;-62
2022/09/25 10:42:40;;;;;;;13.75;7.10;;;;;;;15.06;65.55;101440.31;5012951;28;20038;-63
2022/09/25 10:45:35;;;;;;;13.32;6.95;;;;;;;15.13;68.63;101434.28;5012816;28;20474;-62
2022/09/25 10:51:09;;;;;;;15.93;7.40;;;;;;;15.09;65.11;101430.50;5012809;28;20081;-62
2022/09/25 10:53:35;;;;;;;12.93;6.93;;;;;;;15.20;66.02;101431.84;5012294;28;20084;-62
2022/09/25 10:56:11;;;;;;;9.75;6.30;;;;;;;15.25;60.44;101430.88;5012315;28;20434;-64
2022/09/25 10:58:43;;;;;;;11.20;6.55;;;;;;;15.31;62.60;101425.97;5012679;28;20049;-62
2022/09/25 11:01:12;;;;;;;11.57;6.70;;;;;;;15.44;60.87;101428.63;5012263;28;20034;-62
2022/09/25 11:03:47;;;;;;;13.73;6.90;;;;;;;15.53;63.37;101431.44;5012289;28;20050;-62
2022/09/25 11:06:13;;;;;;;13.77;6.93;;;;;;;15.41;60.71;101429.25;5012345;28;20030;-63
2022/09/25 11:08:40;;;;;;;12.00;6.40;;;;;;;15.18;60.25;101428.53;5012027;28;20038;-64
2022/09/25 11:11:08;;;;;;;11.93;6.93;;;;;;;15.06;60.88;101422.78;5011839;28;20030;-62
2022/09/25 11:13:49;;;;;;;11.85;6.97;;;;;;;15.14;62.34;101419.22;5012382;28;20460;-62
2022/09/25 11:16:16;;;;;;;12.52;6.60;;;;;;;15.34;62.80;101417.78;5011904;28;20088;-62
2022/09/25 11:18:49;;;;;;;14.43;7.00;;;;;;;15.44;60.01;101408.28;5026919;28;20144;-63
2022/09/25 11:21:29;;;;;;;13.40;7.00;;;;;;;15.66;62.64;101417.66;5011784;28;20028;-62
2022/09/25 11:24:03;;;;;;;14.20;6.78;;;;;;;15.77;61.59;101420.94;5011512;28;20133;-63
2022/09/25 11:26:39;;;;;;;11.30;6.55;;;;;;;15.73;61.10;101417.97;5010883;28;20077;-62
2022/09/25 11:29:33;;;;;;;12.90;6.80;;;;;;;15.57;61.17;101420.44;5011780;28;20057;-62
2022/09/25 11:32:10;;;;;;;11.50;6.72;;;;;;;15.34;58.13;101420.56;5011972;28;20068;-62
2022/09/25 11:34:42;;;;;;;11.90;6.65;;;;;;;15.38;59.65;101406.78;5011680;28;20030;-63
2022/09/25 11:37:16;;;;;;;11.67;6.70;;;;;;;15.50;59.67;101411.72;5011392;28;20123;-62
2022/09/25 11:43:10;;;;;;;11.05;6.47;;;;;;;15.96;58.10;101399.16;5011411;28;20087;-61